sensor_id;sensor_type;location;lat;lon;timestamp;temperature;humidity
65876;HTU21D;52657;51.128;5.938;2024-02-21T00:00:54;12.17;67.28
65876;HTU21D;52657;51.128;5.938;2024-02-21T00:03:23;12.12;67.43
65876;HTU21D;52657;51.128;5.938;2024-02-21T00:05:49;12.11;67.59
65876;HTU21D;52657;51.128;5.938;2024-02-21T00:08:14;12.14;67.55
65876;HTU21D;52657;51.128;5.938;2024-02-21T00:10:40;12.15;67.45
65876;HTU21D;52657;51.128;5.938;2024-02-21T00:13:06;12.18;67.39
65876;HTU21D;52657;51.128;5.938;2024-02-21T00:15:31;12.18;67.33
65876;HTU21D;52657;51.128;5.938;2024-02-21T00:17:57;12.18;67.35
65876;HTU21D;52657;51.128;5.938;2024-02-21T00:20:23;12.17;67.30
65876;HTU21D;52657;51.128;5.938;2024-02-21T00:22:50;12.18;67.37
65876;HTU21D;52657;51.128;5.938;2024-02-21T00:25:16;12.22;67.32
65876;HTU21D;52657;51.128;5.938;2024-02-21T00:27:42;12.28;67.10
65876;HTU21D;52657;51.128;5.938;2024-02-21T00:30:08;12.27;67.07
65876;HTU21D;52657;51.128;5.938;2024-02-21T00:32:34;12.27;67.06
65876;HTU21D;52657;51.128;5.938;2024-02-21T00:35:00;12.23;67.12
65876;HTU21D;52657;51.128;5.938;2024-02-21T00:37:27;12.21;67.32
65876;HTU21D;52657;51.128;5.938;2024-02-21T00:39:54;12.20;67.33
65876;HTU21D;52657;51.128;5.938;2024-02-21T00:42:20;12.16;67.48
65876;HTU21D;52657;51.128;5.938;2024-02-21T00:44:47;12.14;67.53
65876;HTU21D;52657;51.128;5.938;2024-02-21T00:47:13;12.14;67.64
65876;HTU21D;52657;51.128;5.938;2024-02-21T00:49:38;12.15;67.69
65876;HTU21D;52657;51.128;5.938;2024-02-21T00:52:04;12.16;67.71
65876;HTU21D;52657;51.128;5.938;2024-02-21T00:54:30;12.18;67.69
65876;HTU21D;52657;51.128;5.938;2024-02-21T00:56:55;12.19;67.71
65876;HTU21D;52657;51.128;5.938;2024-02-21T00:59:21;12.22;67.61
65876;HTU21D;52657;51.128;5.938;2024-02-21T01:01:48;12.26;67.45
65876;HTU21D;52657;51.128;5.938;2024-02-21T01:04:13;12.20;67.57
65876;HTU21D;52657;51.128;5.938;2024-02-21T01:06:39;12.19;67.63
65876;HTU21D;52657;51.128;5.938;2024-02-21T01:09:08;12.19;67.76
65876;HTU21D;52657;51.128;5.938;2024-02-21T01:11:34;12.17;67.82
65876;HTU21D;52657;51.128;5.938;2024-02-21T01:13:59;12.21;67.77
65876;HTU21D;52657;51.128;5.938;2024-02-21T01:16:26;12.20;67.73
65876;HTU21D;52657;51.128;5.938;2024-02-21T01:18:52;12.22;67.69
65876;HTU21D;52657;51.128;5.938;2024-02-21T01:21:18;12.22;67.61
65876;HTU21D;52657;51.128;5.938;2024-02-21T01:23:44;12.21;67.59
65876;HTU21D;52657;51.128;5.938;2024-02-21T01:26:10;12.17;67.63
65876;HTU21D;52657;51.128;5.938;2024-02-21T01:28:38;12.13;67.81
65876;HTU21D;52657;51.128;5.938;2024-02-21T01:31:04;12.13;67.90
65876;HTU21D;52657;51.128;5.938;2024-02-21T01:33:29;12.13;67.93
65876;HTU21D;52657;51.128;5.938;2024-02-21T01:36:03;12.16;67.86
65876;HTU21D;52657;51.128;5.938;2024-02-21T01:38:29;12.18;67.81
65876;HTU21D;52657;51.128;5.938;2024-02-21T01:40:55;12.19;67.78
65876;HTU21D;52657;51.128;5.938;2024-02-21T01:43:22;12.21;67.65
65876;HTU21D;52657;51.128;5.938;2024-02-21T01:45:57;12.20;67.68
65876;HTU21D;52657;51.128;5.938;2024-02-21T01:48:23;12.19;67.73
65876;HTU21D;52657;51.128;5.938;2024-02-21T01:50:50;12.21;67.71
65876;HTU21D;52657;51.128;5.938;2024-02-21T01:53:30;12.22;67.58
65876;HTU21D;52657;51.128;5.938;2024-02-21T01:55:56;12.25;67.55
65876;HTU21D;52657;51.128;5.938;2024-02-21T01:58:23;12.23;67.49
65876;HTU21D;52657;51.128;5.938;2024-02-21T02:00:50;12.21;67.61
65876;HTU21D;52657;51.128;5.938;2024-02-21T02:03:16;12.26;67.52
65876;HTU21D;52657;51.128;5.938;2024-02-21T02:05:45;12.25;67.47
65876;HTU21D;52657;51.128;5.938;2024-02-21T02:08:16;12.26;67.47
65876;HTU21D;52657;51.128;5.938;2024-02-21T02:10:42;12.25;67.43
65876;HTU21D;52657;51.128;5.938;2024-02-21T02:13:09;12.22;67.51
65876;HTU21D;52657;51.128;5.938;2024-02-21T02:15:39;12.21;67.62
65876;HTU21D;52657;51.128;5.938;2024-02-21T02:18:06;12.26;67.52
65876;HTU21D;52657;51.128;5.938;2024-02-21T02:20:31;12.25;67.46
65876;HTU21D;52657;51.128;5.938;2024-02-21T02:22:59;12.27;67.49
65876;HTU21D;52657;51.128;5.938;2024-02-21T02:25:26;12.27;67.35
65876;HTU21D;52657;51.128;5.938;2024-02-21T02:27:51;12.22;67.55
65876;HTU21D;52657;51.128;5.938;2024-02-21T02:30:18;12.25;67.58
65876;HTU21D;52657;51.128;5.938;2024-02-21T02:32:45;12.26;67.49
65876;HTU21D;52657;51.128;5.938;2024-02-21T02:35:12;12.23;67.43
65876;HTU21D;52657;51.128;5.938;2024-02-21T02:37:37;12.21;67.49
65876;HTU21D;52657;51.128;5.938;2024-02-21T02:40:06;12.18;67.55
65876;HTU21D;52657;51.128;5.938;2024-02-21T02:42:32;12.15;67.60
65876;HTU21D;52657;51.128;5.938;2024-02-21T02:44:57;12.17;67.62
65876;HTU21D;52657;51.128;5.938;2024-02-21T02:47:23;12.16;67.68
65876;HTU21D;52657;51.128;5.938;2024-02-21T02:49:49;12.15;67.76
65876;HTU21D;52657;51.128;5.938;2024-02-21T02:52:19;12.15;67.68
65876;HTU21D;52657;51.128;5.938;2024-02-21T02:54:45;12.15;67.71
65876;HTU21D;52657;51.128;5.938;2024-02-21T02:57:11;12.17;67.59
65876;HTU21D;52657;51.128;5.938;2024-02-21T02:59:37;12.18;67.47
65876;HTU21D;52657;51.128;5.938;2024-02-21T03:02:02;12.18;67.33
65876;HTU21D;52657;51.128;5.938;2024-02-21T03:04:28;12.18;67.17
65876;HTU21D;52657;51.128;5.938;2024-02-21T03:06:54;12.17;67.09
65876;HTU21D;52657;51.128;5.938;2024-02-21T03:09:19;12.16;67.04
65876;HTU21D;52657;51.128;5.938;2024-02-21T03:11:45;12.19;67.05
65876;HTU21D;52657;51.128;5.938;2024-02-21T03:14:11;12.20;66.98
65876;HTU21D;52657;51.128;5.938;2024-02-21T03:16:37;12.21;66.88
65876;HTU21D;52657;51.128;5.938;2024-02-21T03:19:02;12.17;66.87
65876;HTU21D;52657;51.128;5.938;2024-02-21T03:21:28;12.11;67.10
65876;HTU21D;52657;51.128;5.938;2024-02-21T03:23:54;12.13;67.04
65876;HTU21D;52657;51.128;5.938;2024-02-21T03:26:22;12.15;66.98
65876;HTU21D;52657;51.128;5.938;2024-02-21T03:28:48;12.11;67.04
65876;HTU21D;52657;51.128;5.938;2024-02-21T03:31:14;12.11;66.98
65876;HTU21D;52657;51.128;5.938;2024-02-21T03:33:42;12.08;66.98
65876;HTU21D;52657;51.128;5.938;2024-02-21T03:36:13;12.10;66.91
65876;HTU21D;52657;51.128;5.938;2024-02-21T03:38:39;12.08;66.80
65876;HTU21D;52657;51.128;5.938;2024-02-21T03:41:05;12.04;67.00
65876;HTU21D;52657;51.128;5.938;2024-02-21T03:43:33;12.03;67.04
65876;HTU21D;52657;51.128;5.938;2024-02-21T03:45:59;12.08;66.94
65876;HTU21D;52657;51.128;5.938;2024-02-21T03:48:25;12.05;66.91
65876;HTU21D;52657;51.128;5.938;2024-02-21T03:50:51;12.05;66.94
65876;HTU21D;52657;51.128;5.938;2024-02-21T03:53:16;12.12;66.88
65876;HTU21D;52657;51.128;5.938;2024-02-21T03:55:42;12.15;66.83
65876;HTU21D;52657;51.128;5.938;2024-02-21T03:58:08;12.17;66.77
65876;HTU21D;52657;51.128;5.938;2024-02-21T04:00:33;12.18;66.62
65876;HTU21D;52657;51.128;5.938;2024-02-21T04:02:59;12.15;66.62
65876;HTU21D;52657;51.128;5.938;2024-02-21T04:05:25;12.14;66.67
65876;HTU21D;52657;51.128;5.938;2024-02-21T04:07:50;12.10;66.70
65876;HTU21D;52657;51.128;5.938;2024-02-21T04:10:18;12.07;66.81
65876;HTU21D;52657;51.128;5.938;2024-02-21T04:12:44;12.04;66.93
65876;HTU21D;52657;51.128;5.938;2024-02-21T04:15:10;12.04;67.01
65876;HTU21D;52657;51.128;5.938;2024-02-21T04:17:39;12.02;67.05
65876;HTU21D;52657;51.128;5.938;2024-02-21T04:20:05;12.04;67.07
65876;HTU21D;52657;51.128;5.938;2024-02-21T04:22:31;12.03;67.04
65876;HTU21D;52657;51.128;5.938;2024-02-21T04:25:00;12.00;67.04
65876;HTU21D;52657;51.128;5.938;2024-02-21T04:27:26;11.98;67.16
65876;HTU21D;52657;51.128;5.938;2024-02-21T04:29:53;12.00;67.23
65876;HTU21D;52657;51.128;5.938;2024-02-21T04:32:19;11.96;67.30
65876;HTU21D;52657;51.128;5.938;2024-02-21T04:34:44;11.93;67.43
65876;HTU21D;52657;51.128;5.938;2024-02-21T04:37:10;11.96;67.36
65876;HTU21D;52657;51.128;5.938;2024-02-21T04:39:36;11.96;67.32
65876;HTU21D;52657;51.128;5.938;2024-02-21T04:42:02;11.93;67.30
65876;HTU21D;52657;51.128;5.938;2024-02-21T04:44:28;11.88;67.36
65876;HTU21D;52657;51.128;5.938;2024-02-21T04:46:53;11.87;67.43
65876;HTU21D;52657;51.128;5.938;2024-02-21T04:49:19;11.83;67.48
65876;HTU21D;52657;51.128;5.938;2024-02-21T04:51:45;11.78;67.58
65876;HTU21D;52657;51.128;5.938;2024-02-21T04:54:11;11.77;67.60
65876;HTU21D;52657;51.128;5.938;2024-02-21T04:56:36;11.74;67.69
65876;HTU21D;52657;51.128;5.938;2024-02-21T04:59:02;11.79;67.62
65876;HTU21D;52657;51.128;5.938;2024-02-21T05:01:28;11.82;67.52
65876;HTU21D;52657;51.128;5.938;2024-02-21T05:03:54;11.84;67.41
65876;HTU21D;52657;51.128;5.938;2024-02-21T05:06:19;11.82;67.40
65876;HTU21D;52657;51.128;5.938;2024-02-21T05:08:45;11.77;67.49
65876;HTU21D;52657;51.128;5.938;2024-02-21T05:11:11;11.81;67.54
65876;HTU21D;52657;51.128;5.938;2024-02-21T05:13:37;11.85;67.57
65876;HTU21D;52657;51.128;5.938;2024-02-21T05:16:02;11.88;67.39
65876;HTU21D;52657;51.128;5.938;2024-02-21T05:18:28;11.91;67.26
65876;HTU21D;52657;51.128;5.938;2024-02-21T05:20:54;11.88;67.23
65876;HTU21D;52657;51.128;5.938;2024-02-21T05:23:20;11.90;67.24
65876;HTU21D;52657;51.128;5.938;2024-02-21T05:25:46;11.86;67.29
65876;HTU21D;52657;51.128;5.938;2024-02-21T05:28:12;11.84;67.50
65876;HTU21D;52657;51.128;5.938;2024-02-21T05:30:38;11.84;67.45
65876;HTU21D;52657;51.128;5.938;2024-02-21T05:33:07;11.84;67.48
65876;HTU21D;52657;51.128;5.938;2024-02-21T05:35:34;11.83;67.45
65876;HTU21D;52657;51.128;5.938;2024-02-21T05:38:00;11.84;67.45
65876;HTU21D;52657;51.128;5.938;2024-02-21T05:40:26;11.83;67.55
65876;HTU21D;52657;51.128;5.938;2024-02-21T05:42:51;11.86;67.52
65876;HTU21D;52657;51.128;5.938;2024-02-21T05:45:20;11.89;67.40
65876;HTU21D;52657;51.128;5.938;2024-02-21T05:47:46;11.88;67.28
65876;HTU21D;52657;51.128;5.938;2024-02-21T05:50:12;11.85;67.34
65876;HTU21D;52657;51.128;5.938;2024-02-21T05:52:38;11.84;67.46
65876;HTU21D;52657;51.128;5.938;2024-02-21T05:55:04;11.85;67.44
65876;HTU21D;52657;51.128;5.938;2024-02-21T05:57:31;11.82;67.52
65876;HTU21D;52657;51.128;5.938;2024-02-21T05:59:57;11.82;67.55
65876;HTU21D;52657;51.128;5.938;2024-02-21T06:02:23;11.82;67.59
65876;HTU21D;52657;51.128;5.938;2024-02-21T06:04:49;11.85;67.59
65876;HTU21D;52657;51.128;5.938;2024-02-21T06:07:15;11.88;67.44
65876;HTU21D;52657;51.128;5.938;2024-02-21T06:09:41;11.87;67.37
65876;HTU21D;52657;51.128;5.938;2024-02-21T06:12:06;11.85;67.51
65876;HTU21D;52657;51.128;5.938;2024-02-21T06:14:32;11.85;67.43
65876;HTU21D;52657;51.128;5.938;2024-02-21T06:16:58;11.85;67.38
65876;HTU21D;52657;51.128;5.938;2024-02-21T06:19:23;11.83;67.40
65876;HTU21D;52657;51.128;5.938;2024-02-21T06:21:49;11.82;67.53
65876;HTU21D;52657;51.128;5.938;2024-02-21T06:24:15;11.85;67.46
65876;HTU21D;52657;51.128;5.938;2024-02-21T06:26:40;11.88;67.25
65876;HTU21D;52657;51.128;5.938;2024-02-21T06:29:06;11.83;67.35
65876;HTU21D;52657;51.128;5.938;2024-02-21T06:31:32;11.82;67.42
65876;HTU21D;52657;51.128;5.938;2024-02-21T06:33:57;11.74;67.59
65876;HTU21D;52657;51.128;5.938;2024-02-21T06:36:23;11.73;67.70
65876;HTU21D;52657;51.128;5.938;2024-02-21T06:38:49;11.74;67.83
65876;HTU21D;52657;51.128;5.938;2024-02-21T06:41:16;11.70;67.95
65876;HTU21D;52657;51.128;5.938;2024-02-21T06:43:47;11.67;68.13
65876;HTU21D;52657;51.128;5.938;2024-02-21T06:46:26;11.61;68.15
65876;HTU21D;52657;51.128;5.938;2024-02-21T06:48:54;11.60;68.23
65876;HTU21D;52657;51.128;5.938;2024-02-21T06:51:24;11.57;68.24
65876;HTU21D;52657;51.128;5.938;2024-02-21T06:53:50;11.61;68.29
65876;HTU21D;52657;51.128;5.938;2024-02-21T06:56:24;11.64;68.00
65876;HTU21D;52657;51.128;5.938;2024-02-21T06:58:52;11.63;67.93
65876;HTU21D;52657;51.128;5.938;2024-02-21T07:01:21;11.60;67.94
65876;HTU21D;52657;51.128;5.938;2024-02-21T07:03:48;11.58;67.99
65876;HTU21D;52657;51.128;5.938;2024-02-21T07:06:14;11.58;67.97
65876;HTU21D;52657;51.128;5.938;2024-02-21T07:08:39;11.58;68.01
65876;HTU21D;52657;51.128;5.938;2024-02-21T07:11:05;11.60;67.94
65876;HTU21D;52657;51.128;5.938;2024-02-21T07:13:32;11.60;67.92
65876;HTU21D;52657;51.128;5.938;2024-02-21T07:15:58;11.61;67.79
65876;HTU21D;52657;51.128;5.938;2024-02-21T07:18:24;11.56;67.91
65876;HTU21D;52657;51.128;5.938;2024-02-21T07:20:52;11.58;67.94
65876;HTU21D;52657;51.128;5.938;2024-02-21T07:23:24;11.63;67.79
65876;HTU21D;52657;51.128;5.938;2024-02-21T07:25:52;11.64;67.82
65876;HTU21D;52657;51.128;5.938;2024-02-21T07:28:19;11.64;67.72
65876;HTU21D;52657;51.128;5.938;2024-02-21T07:30:49;11.63;67.75
65876;HTU21D;52657;51.128;5.938;2024-02-21T07:33:15;11.66;67.82
65876;HTU21D;52657;51.128;5.938;2024-02-21T07:35:41;11.62;67.97
65876;HTU21D;52657;51.128;5.938;2024-02-21T07:38:07;11.61;68.31
65876;HTU21D;52657;51.128;5.938;2024-02-21T07:40:38;11.62;68.58
65876;HTU21D;52657;51.128;5.938;2024-02-21T07:43:04;11.64;68.57
65876;HTU21D;52657;51.128;5.938;2024-02-21T07:45:30;11.58;68.61
65876;HTU21D;52657;51.128;5.938;2024-02-21T07:47:55;11.49;68.84
65876;HTU21D;52657;51.128;5.938;2024-02-21T07:50:21;11.43;69.05
65876;HTU21D;52657;51.128;5.938;2024-02-21T07:52:47;11.43;69.13
65876;HTU21D;52657;51.128;5.938;2024-02-21T07:55:13;11.44;69.04
65876;HTU21D;52657;51.128;5.938;2024-02-21T07:57:42;11.47;69.08
65876;HTU21D;52657;51.128;5.938;2024-02-21T08:00:08;11.51;68.94
65876;HTU21D;52657;51.128;5.938;2024-02-21T08:02:49;11.58;68.75
65876;HTU21D;52657;51.128;5.938;2024-02-21T08:05:15;11.59;68.65
65876;HTU21D;52657;51.128;5.938;2024-02-21T08:07:40;11.57;68.73
65876;HTU21D;52657;51.128;5.938;2024-02-21T08:10:07;11.60;68.58
65876;HTU21D;52657;51.128;5.938;2024-02-21T08:12:34;11.64;68.52
65876;HTU21D;52657;51.128;5.938;2024-02-21T08:15:00;11.70;68.37
65876;HTU21D;52657;51.128;5.938;2024-02-21T08:17:26;11.74;68.18
65876;HTU21D;52657;51.128;5.938;2024-02-21T08:19:52;11.76;68.01
65876;HTU21D;52657;51.128;5.938;2024-02-21T08:22:20;11.79;67.86
65876;HTU21D;52657;51.128;5.938;2024-02-21T08:24:46;11.79;67.79
65876;HTU21D;52657;51.128;5.938;2024-02-21T08:27:12;11.76;67.88
65876;HTU21D;52657;51.128;5.938;2024-02-21T08:29:37;11.76;67.83
65876;HTU21D;52657;51.128;5.938;2024-02-21T08:32:03;11.78;67.94
65876;HTU21D;52657;51.128;5.938;2024-02-21T08:34:29;11.83;67.88
65876;HTU21D;52657;51.128;5.938;2024-02-21T08:36:59;11.91;67.75
65876;HTU21D;52657;51.128;5.938;2024-02-21T08:39:25;11.97;67.57
65876;HTU21D;52657;51.128;5.938;2024-02-21T08:41:51;11.97;67.15
65876;HTU21D;52657;51.128;5.938;2024-02-21T08:44:17;11.96;67.06
65876;HTU21D;52657;51.128;5.938;2024-02-21T08:46:44;11.94;67.07
65876;HTU21D;52657;51.128;5.938;2024-02-21T08:49:10;11.96;66.99
65876;HTU21D;52657;51.128;5.938;2024-02-21T08:51:36;11.94;66.69
65876;HTU21D;52657;51.128;5.938;2024-02-21T08:54:05;11.94;66.81
65876;HTU21D;52657;51.128;5.938;2024-02-21T08:56:31;12.01;66.88
65876;HTU21D;52657;51.128;5.938;2024-02-21T08:58:57;12.08;66.74
65876;HTU21D;52657;51.128;5.938;2024-02-21T09:01:23;12.06;66.33
65876;HTU21D;52657;51.128;5.938;2024-02-21T09:03:49;12.04;66.31
65876;HTU21D;52657;51.128;5.938;2024-02-21T09:06:19;12.10;66.30
65876;HTU21D;52657;51.128;5.938;2024-02-21T09:08:51;12.14;66.02
65876;HTU21D;52657;51.128;5.938;2024-02-21T09:11:17;12.16;65.60
65876;HTU21D;52657;51.128;5.938;2024-02-21T09:13:44;12.17;65.22
65876;HTU21D;52657;51.128;5.938;2024-02-21T09:16:10;12.17;65.09
65876;HTU21D;52657;51.128;5.938;2024-02-21T09:18:35;12.16;65.02
65876;HTU21D;52657;51.128;5.938;2024-02-21T09:21:01;12.18;65.08
65876;HTU21D;52657;51.128;5.938;2024-02-21T09:23:27;12.22;65.01
65876;HTU21D;52657;51.128;5.938;2024-02-21T09:25:53;12.26;64.80
65876;HTU21D;52657;51.128;5.938;2024-02-21T09:28:21;12.28;64.72
65876;HTU21D;52657;51.128;5.938;2024-02-21T09:30:46;12.32;64.29
65876;HTU21D;52657;51.128;5.938;2024-02-21T09:33:12;12.30;63.98
65876;HTU21D;52657;51.128;5.938;2024-02-21T09:35:39;12.29;63.95
65876;HTU21D;52657;51.128;5.938;2024-02-21T09:38:04;12.33;64.14
65876;HTU21D;52657;51.128;5.938;2024-02-21T09:40:30;12.34;63.89
65876;HTU21D;52657;51.128;5.938;2024-02-21T09:43:04;12.32;63.79
65876;HTU21D;52657;51.128;5.938;2024-02-21T09:45:33;12.36;63.70
65876;HTU21D;52657;51.128;5.938;2024-02-21T09:50:40;12.46;63.37
65876;HTU21D;52657;51.128;5.938;2024-02-21T09:53:12;12.45;63.24
65876;HTU21D;52657;51.128;5.938;2024-02-21T09:55:40;12.42;63.04
65876;HTU21D;52657;51.128;5.938;2024-02-21T09:58:07;12.45;63.08
65876;HTU21D;52657;51.128;5.938;2024-02-21T10:00:35;12.53;62.86
65876;HTU21D;52657;51.128;5.938;2024-02-21T10:03:05;12.56;62.63
65876;HTU21D;52657;51.128;5.938;2024-02-21T10:05:34;12.52;62.50
65876;HTU21D;52657;51.128;5.938;2024-02-21T10:08:01;12.53;62.74
65876;HTU21D;52657;51.128;5.938;2024-02-21T10:10:27;12.59;62.75
65876;HTU21D;52657;51.128;5.938;2024-02-21T10:12:53;12.63;62.57
65876;HTU21D;52657;51.128;5.938;2024-02-21T10:15:24;12.63;62.45
65876;HTU21D;52657;51.128;5.938;2024-02-21T10:17:58;12.66;62.32
65876;HTU21D;52657;51.128;5.938;2024-02-21T10:20:24;12.66;62.43
65876;HTU21D;52657;51.128;5.938;2024-02-21T10:23:03;12.77;62.29
65876;HTU21D;52657;51.128;5.938;2024-02-21T10:25:34;12.84;62.11
65876;HTU21D;52657;51.128;5.938;2024-02-21T10:28:02;12.84;61.74
65876;HTU21D;52657;51.128;5.938;2024-02-21T10:30:29;12.87;62.01
65876;HTU21D;52657;51.128;5.938;2024-02-21T10:32:55;12.90;62.02
65876;HTU21D;52657;51.128;5.938;2024-02-21T10:35:29;12.91;62.03
65876;HTU21D;52657;51.128;5.938;2024-02-21T10:37:59;12.99;62.05
65876;HTU21D;52657;51.128;5.938;2024-02-21T10:40:28;13.04;62.13
65876;HTU21D;52657;51.128;5.938;2024-02-21T10:43:00;13.08;62.19
65876;HTU21D;52657;51.128;5.938;2024-02-21T10:45:34;13.17;61.89
65876;HTU21D;52657;51.128;5.938;2024-02-21T10:48:13;13.19;61.79
65876;HTU21D;52657;51.128;5.938;2024-02-21T10:51:01;13.23;61.70
65876;HTU21D;52657;51.128;5.938;2024-02-21T10:56:31;13.39;61.73
65876;HTU21D;52657;51.128;5.938;2024-02-21T10:59:01;13.46;61.63
65876;HTU21D;52657;51.128;5.938;2024-02-21T11:01:28;13.48;61.23
65876;HTU21D;52657;51.128;5.938;2024-02-21T11:04:03;13.52;61.34
65876;HTU21D;52657;51.128;5.938;2024-02-21T11:06:30;13.58;61.00
65876;HTU21D;52657;51.128;5.938;2024-02-21T11:11:25;13.62;60.68
65876;HTU21D;52657;51.128;5.938;2024-02-21T11:13:51;13.63;60.69
65876;HTU21D;52657;51.128;5.938;2024-02-21T11:16:25;13.62;60.57
65876;HTU21D;52657;51.128;5.938;2024-02-21T11:18:51;13.61;60.54
65876;HTU21D;52657;51.128;5.938;2024-02-21T11:21:20;13.67;60.70
65876;HTU21D;52657;51.128;5.938;2024-02-21T11:23:55;13.78;60.73
65876;HTU21D;52657;51.128;5.938;2024-02-21T11:26:21;13.80;60.14
65876;HTU21D;52657;51.128;5.938;2024-02-21T11:28:56;13.76;59.99
65876;HTU21D;52657;51.128;5.938;2024-02-21T11:31:26;13.71;59.85
65876;HTU21D;52657;51.128;5.938;2024-02-21T11:33:54;13.70;59.94
65876;HTU21D;52657;51.128;5.938;2024-02-21T11:36:25;13.66;60.28
65876;HTU21D;52657;51.128;5.938;2024-02-21T11:38:51;13.73;60.29
65876;HTU21D;52657;51.128;5.938;2024-02-21T11:41:19;13.74;60.12
65876;HTU21D;52657;51.128;5.938;2024-02-21T11:43:49;13.79;60.17
65876;HTU21D;52657;51.128;5.938;2024-02-21T11:46:16;13.88;59.96
65876;HTU21D;52657;51.128;5.938;2024-02-21T11:48:42;13.92;59.73
65876;HTU21D;52657;51.128;5.938;2024-02-21T11:51:24;13.92;59.36
65876;HTU21D;52657;51.128;5.938;2024-02-21T11:53:52;13.96;59.54
65876;HTU21D;52657;51.128;5.938;2024-02-21T11:56:19;14.06;59.65
65876;HTU21D;52657;51.128;5.938;2024-02-21T11:58:47;14.18;59.46
65876;HTU21D;52657;51.128;5.938;2024-02-21T12:01:15;14.22;59.07
65876;HTU21D;52657;51.128;5.938;2024-02-21T12:03:42;14.27;58.80
65876;HTU21D;52657;51.128;5.938;2024-02-21T12:06:16;14.30;58.54
65876;HTU21D;52657;51.128;5.938;2024-02-21T12:08:45;14.33;58.64
65876;HTU21D;52657;51.128;5.938;2024-02-21T12:11:23;14.39;58.37
65876;HTU21D;52657;51.128;5.938;2024-02-21T12:14:00;14.41;58.19
65876;HTU21D;52657;51.128;5.938;2024-02-21T12:16:30;14.41;57.81
65876;HTU21D;52657;51.128;5.938;2024-02-21T12:19:00;14.44;57.58
65876;HTU21D;52657;51.128;5.938;2024-02-21T12:21:27;14.39;57.35
65876;HTU21D;52657;51.128;5.938;2024-02-21T12:23:55;14.41;57.51
65876;HTU21D;52657;51.128;5.938;2024-02-21T12:26:21;14.34;57.49
65876;HTU21D;52657;51.128;5.938;2024-02-21T12:28:48;14.39;57.25
65876;HTU21D;52657;51.128;5.938;2024-02-21T12:31:14;14.37;57.12
65876;HTU21D;52657;51.128;5.938;2024-02-21T12:33:42;14.39;57.69
65876;HTU21D;52657;51.128;5.938;2024-02-21T12:36:08;14.47;57.56
65876;HTU21D;52657;51.128;5.938;2024-02-21T12:38:35;14.56;57.23
65876;HTU21D;52657;51.128;5.938;2024-02-21T12:41:01;14.66;57.27
65876;HTU21D;52657;51.128;5.938;2024-02-21T12:43:27;14.77;57.15
65876;HTU21D;52657;51.128;5.938;2024-02-21T12:45:53;14.87;56.97
65876;HTU21D;52657;51.128;5.938;2024-02-21T12:48:19;14.92;56.17
65876;HTU21D;52657;51.128;5.938;2024-02-21T12:50:51;14.89;55.55
65876;HTU21D;52657;51.128;5.938;2024-02-21T12:53:18;14.84;55.17
65876;HTU21D;52657;51.128;5.938;2024-02-21T12:55:49;14.70;54.37
65876;HTU21D;52657;51.128;5.938;2024-02-21T12:58:14;14.64;55.41
65876;HTU21D;52657;51.128;5.938;2024-02-21T13:00:41;14.66;55.66
65876;HTU21D;52657;51.128;5.938;2024-02-21T13:03:08;14.71;55.56
65876;HTU21D;52657;51.128;5.938;2024-02-21T13:05:38;14.69;55.81
65876;HTU21D;52657;51.128;5.938;2024-02-21T13:08:06;14.69;55.97
65876;HTU21D;52657;51.128;5.938;2024-02-21T13:10:32;14.70;55.58
65876;HTU21D;52657;51.128;5.938;2024-02-21T13:13:02;14.70;55.79
65876;HTU21D;52657;51.128;5.938;2024-02-21T13:15:28;14.65;55.87
65876;HTU21D;52657;51.128;5.938;2024-02-21T13:17:56;14.64;56.03
65876;HTU21D;52657;51.128;5.938;2024-02-21T13:20:23;14.65;56.10
65876;HTU21D;52657;51.128;5.938;2024-02-21T13:22:49;14.63;55.84
65876;HTU21D;52657;51.128;5.938;2024-02-21T13:25:15;14.58;55.89
65876;HTU21D;52657;51.128;5.938;2024-02-21T13:27:44;14.60;56.09
65876;HTU21D;52657;51.128;5.938;2024-02-21T13:30:10;14.65;56.02
65876;HTU21D;52657;51.128;5.938;2024-02-21T13:32:39;14.63;56.19
65876;HTU21D;52657;51.128;5.938;2024-02-21T13:35:05;14.54;56.15
65876;HTU21D;52657;51.128;5.938;2024-02-21T13:37:32;14.50;56.00
65876;HTU21D;52657;51.128;5.938;2024-02-21T13:39:57;14.43;55.79
65876;HTU21D;52657;51.128;5.938;2024-02-21T13:42:23;14.36;55.83
65876;HTU21D;52657;51.128;5.938;2024-02-21T13:44:53;14.33;56.20
65876;HTU21D;52657;51.128;5.938;2024-02-21T13:47:19;14.34;56.07
65876;HTU21D;52657;51.128;5.938;2024-02-21T13:49:47;14.32;56.23
65876;HTU21D;52657;51.128;5.938;2024-02-21T13:52:13;14.28;56.50
65876;HTU21D;52657;51.128;5.938;2024-02-21T13:54:40;14.35;56.82
65876;HTU21D;52657;51.128;5.938;2024-02-21T13:57:05;14.37;56.70
65876;HTU21D;52657;51.128;5.938;2024-02-21T13:59:31;14.34;56.49
65876;HTU21D;52657;51.128;5.938;2024-02-21T14:01:59;14.36;56.35
65876;HTU21D;52657;51.128;5.938;2024-02-21T14:04:25;14.38;56.48
65876;HTU21D;52657;51.128;5.938;2024-02-21T14:06:51;14.38;56.05
65876;HTU21D;52657;51.128;5.938;2024-02-21T14:09:19;14.35;56.19
65876;HTU21D;52657;51.128;5.938;2024-02-21T14:11:45;14.38;56.54
65876;HTU21D;52657;51.128;5.938;2024-02-21T14:14:11;14.43;56.72
65876;HTU21D;52657;51.128;5.938;2024-02-21T14:16:37;14.49;56.68
65876;HTU21D;52657;51.128;5.938;2024-02-21T14:19:03;14.51;56.88
65876;HTU21D;52657;51.128;5.938;2024-02-21T14:21:28;14.52;56.19
65876;HTU21D;52657;51.128;5.938;2024-02-21T14:23:54;14.48;56.15
65876;HTU21D;52657;51.128;5.938;2024-02-21T14:26:21;14.47;56.01
65876;HTU21D;52657;51.128;5.938;2024-02-21T14:28:47;14.42;55.93
65876;HTU21D;52657;51.128;5.938;2024-02-21T14:31:13;14.41;56.21
65876;HTU21D;52657;51.128;5.938;2024-02-21T14:33:39;14.41;56.41
65876;HTU21D;52657;51.128;5.938;2024-02-21T14:36:05;14.40;56.49
65876;HTU21D;52657;51.128;5.938;2024-02-21T14:38:31;14.40;56.17
65876;HTU21D;52657;51.128;5.938;2024-02-21T14:40:56;14.39;56.50
65876;HTU21D;52657;51.128;5.938;2024-02-21T14:43:23;14.39;56.29
65876;HTU21D;52657;51.128;5.938;2024-02-21T14:45:49;14.39;55.98
65876;HTU21D;52657;51.128;5.938;2024-02-21T14:48:23;14.36;56.03
65876;HTU21D;52657;51.128;5.938;2024-02-21T14:50:49;14.36;56.07
65876;HTU21D;52657;51.128;5.938;2024-02-21T14:53:15;14.41;56.17
65876;HTU21D;52657;51.128;5.938;2024-02-21T14:55:40;14.37;55.49
65876;HTU21D;52657;51.128;5.938;2024-02-21T14:58:09;14.34;55.68
65876;HTU21D;52657;51.128;5.938;2024-02-21T15:00:35;14.34;56.07
65876;HTU21D;52657;51.128;5.938;2024-02-21T15:03:02;14.36;55.90
65876;HTU21D;52657;51.128;5.938;2024-02-21T15:05:28;14.33;55.22
65876;HTU21D;52657;51.128;5.938;2024-02-21T15:07:55;14.29;55.51
65876;HTU21D;52657;51.128;5.938;2024-02-21T15:10:22;14.24;55.33
65876;HTU21D;52657;51.128;5.938;2024-02-21T15:12:50;14.23;55.26
65876;HTU21D;52657;51.128;5.938;2024-02-21T15:15:16;14.24;55.37
65876;HTU21D;52657;51.128;5.938;2024-02-21T15:17:43;14.23;55.49
65876;HTU21D;52657;51.128;5.938;2024-02-21T15:20:09;14.24;56.26
65876;HTU21D;52657;51.128;5.938;2024-02-21T15:22:35;14.24;56.76